sensor_id;sensor_type;location;lat;lon;timestamp;temperature;humidity
70421;SHT31;57848;51.938;15.520;2023-05-07T00:01:41;7.98;96.17
70421;SHT31;57848;51.938;15.520;2023-05-07T00:04:06;7.92;96.52
70421;SHT31;57848;51.938;15.520;2023-05-07T00:06:32;7.92;96.13
70421;SHT31;57848;51.938;15.520;2023-05-07T00:08:58;7.91;96.33
70421;SHT31;57848;51.938;15.520;2023-05-07T00:11:24;7.91;96.70
70421;SHT31;57848;51.938;15.520;2023-05-07T00:13:51;7.95;96.66
70421;SHT31;57848;51.938;15.520;2023-05-07T00:16:16;7.94;96.76
70421;SHT31;57848;51.938;15.520;2023-05-07T00:18:41;7.95;96.47
70421;SHT31;57848;51.938;15.520;2023-05-07T00:21:07;7.95;96.26
70421;SHT31;57848;51.938;15.520;2023-05-07T00:23:32;7.92;96.02
70421;SHT31;57848;51.938;15.520;2023-05-07T00:25:58;8.02;96.20
70421;SHT31;57848;51.938;15.520;2023-05-07T00:28:23;8.02;95.97
70421;SHT31;57848;51.938;15.520;2023-05-07T00:30:48;7.96;96.38
70421;SHT31;57848;51.938;15.520;2023-05-07T00:33:14;7.96;96.39
70421;SHT31;57848;51.938;15.520;2023-05-07T00:35:39;8.02;95.79
70421;SHT31;57848;51.938;15.520;2023-05-07T00:38:05;8.01;96.14
70421;SHT31;57848;51.938;15.520;2023-05-07T00:40:30;7.95;95.99
70421;SHT31;57848;51.938;15.520;2023-05-07T00:42:56;7.99;95.88
70421;SHT31;57848;51.938;15.520;2023-05-07T00:45:26;7.91;95.95
70421;SHT31;57848;51.938;15.520;2023-05-07T00:47:53;7.96;96.01
70421;SHT31;57848;51.938;15.520;2023-05-07T00:50:19;7.86;96.08
70421;SHT31;57848;51.938;15.520;2023-05-07T00:52:45;7.81;96.58
70421;SHT31;57848;51.938;15.520;2023-05-07T00:55:10;7.88;96.39
70421;SHT31;57848;51.938;15.520;2023-05-07T00:57:37;7.86;96.39
70421;SHT31;57848;51.938;15.520;2023-05-07T01:00:05;7.92;96.03
70421;SHT31;57848;51.938;15.520;2023-05-07T01:02:30;7.91;95.57
70421;SHT31;57848;51.938;15.520;2023-05-07T01:04:56;7.86;96.14
70421;SHT31;57848;51.938;15.520;2023-05-07T01:07:22;7.84;96.38
70421;SHT31;57848;51.938;15.520;2023-05-07T01:09:48;7.86;95.88
70421;SHT31;57848;51.938;15.520;2023-05-07T01:12:14;7.88;95.98
70421;SHT31;57848;51.938;15.520;2023-05-07T01:14:40;7.84;95.90
70421;SHT31;57848;51.938;15.520;2023-05-07T01:17:06;7.84;96.11
70421;SHT31;57848;51.938;15.520;2023-05-07T01:19:31;7.86;95.80
70421;SHT31;57848;51.938;15.520;2023-05-07T01:22:07;7.82;96.06
70421;SHT31;57848;51.938;15.520;2023-05-07T01:24:40;7.82;95.97
70421;SHT31;57848;51.938;15.520;2023-05-07T01:27:07;7.86;95.84
70421;SHT31;57848;51.938;15.520;2023-05-07T01:29:34;7.85;96.06
70421;SHT31;57848;51.938;15.520;2023-05-07T01:32:00;7.91;96.07
70421;SHT31;57848;51.938;15.520;2023-05-07T01:34:31;7.89;96.05
70421;SHT31;57848;51.938;15.520;2023-05-07T01:36:58;7.84;95.85
70421;SHT31;57848;51.938;15.520;2023-05-07T01:39:25;7.88;95.63
70421;SHT31;57848;51.938;15.520;2023-05-07T01:41:53;7.81;96.00
70421;SHT31;57848;51.938;15.520;2023-05-07T01:44:20;7.82;95.97
70421;SHT31;57848;51.938;15.520;2023-05-07T01:46:47;7.79;96.10
70421;SHT31;57848;51.938;15.520;2023-05-07T01:49:13;7.82;95.53
70421;SHT31;57848;51.938;15.520;2023-05-07T01:51:39;7.79;95.89
70421;SHT31;57848;51.938;15.520;2023-05-07T01:54:05;7.75;95.84
70421;SHT31;57848;51.938;15.520;2023-05-07T01:56:31;7.79;95.69
70421;SHT31;57848;51.938;15.520;2023-05-07T01:58:56;7.77;95.75
70421;SHT31;57848;51.938;15.520;2023-05-07T02:01:22;7.77;95.82
70421;SHT31;57848;51.938;15.520;2023-05-07T02:03:48;7.81;95.92
70421;SHT31;57848;51.938;15.520;2023-05-07T02:06:20;7.79;95.52
70421;SHT31;57848;51.938;15.520;2023-05-07T02:08:46;7.85;95.58
70421;SHT31;57848;51.938;15.520;2023-05-07T02:11:13;7.81;95.52
70421;SHT31;57848;51.938;15.520;2023-05-07T02:13:38;7.81;96.00
70421;SHT31;57848;51.938;15.520;2023-05-07T02:16:04;7.74;95.71
70421;SHT31;57848;51.938;15.520;2023-05-07T02:18:29;7.64;95.76
70421;SHT31;57848;51.938;15.520;2023-05-07T02:20:55;7.71;96.02
70421;SHT31;57848;51.938;15.520;2023-05-07T02:23:20;7.71;96.26
70421;SHT31;57848;51.938;15.520;2023-05-07T02:25:46;7.71;96.43
70421;SHT31;57848;51.938;15.520;2023-05-07T02:28:12;7.71;96.18
70421;SHT31;57848;51.938;15.520;2023-05-07T02:30:47;7.78;95.86
70421;SHT31;57848;51.938;15.520;2023-05-07T02:33:13;7.70;95.75
70421;SHT31;57848;51.938;15.520;2023-05-07T02:35:39;7.70;95.69
70421;SHT31;57848;51.938;15.520;2023-05-07T02:38:05;7.68;96.03
70421;SHT31;57848;51.938;15.520;2023-05-07T02:40:32;7.74;95.80
70421;SHT31;57848;51.938;15.520;2023-05-07T02:42:59;7.67;96.07
70421;SHT31;57848;51.938;15.520;2023-05-07T02:45:24;7.74;95.92
70421;SHT31;57848;51.938;15.520;2023-05-07T02:47:52;7.74;95.90
70421;SHT31;57848;51.938;15.520;2023-05-07T02:50:17;7.73;95.66
70421;SHT31;57848;51.938;15.520;2023-05-07T02:52:43;7.71;95.14
70421;SHT31;57848;51.938;15.520;2023-05-07T02:55:08;7.65;95.57
70421;SHT31;57848;51.938;15.520;2023-05-07T02:57:34;7.70;95.57
70421;SHT31;57848;51.938;15.520;2023-05-07T02:59:59;7.65;95.29
70421;SHT31;57848;51.938;15.520;2023-05-07T03:02:34;7.73;95.32
70421;SHT31;57848;51.938;15.520;2023-05-07T03:05:00;7.68;95.18
70421;SHT31;57848;51.938;15.520;2023-05-07T03:07:25;7.64;95.30
70421;SHT31;57848;51.938;15.520;2023-05-07T03:09:51;7.61;95.50
70421;SHT31;57848;51.938;15.520;2023-05-07T03:12:16;7.64;95.02
70421;SHT31;57848;51.938;15.520;2023-05-07T03:14:41;7.58;95.49
70421;SHT31;57848;51.938;15.520;2023-05-07T03:17:06;7.57;95.28
70421;SHT31;57848;51.938;15.520;2023-05-07T03:19:32;7.54;95.58
70421;SHT31;57848;51.938;15.520;2023-05-07T03:21:57;7.57;95.54
70421;SHT31;57848;51.938;15.520;2023-05-07T03:24:23;7.55;95.24
70421;SHT31;57848;51.938;15.520;2023-05-07T03:26:48;7.48;95.62
70421;SHT31;57848;51.938;15.520;2023-05-07T03:29:13;7.55;95.77
70421;SHT31;57848;51.938;15.520;2023-05-07T03:31:39;7.58;95.15
70421;SHT31;57848;51.938;15.520;2023-05-07T03:34:04;7.55;95.24
70421;SHT31;57848;51.938;15.520;2023-05-07T03:36:29;7.58;94.90
70421;SHT31;57848;51.938;15.520;2023-05-07T03:38:56;7.57;95.26
70421;SHT31;57848;51.938;15.520;2023-05-07T03:41:24;7.47;95.08
70421;SHT31;57848;51.938;15.520;2023-05-07T03:43:51;7.51;95.09
70421;SHT31;57848;51.938;15.520;2023-05-07T03:46:16;7.53;94.98
70421;SHT31;57848;51.938;15.520;2023-05-07T03:48:42;7.51;95.09
70421;SHT31;57848;51.938;15.520;2023-05-07T03:51:08;7.48;95.25
70421;SHT31;57848;51.938;15.520;2023-05-07T03:53:33;7.50;95.17
70421;SHT31;57848;51.938;15.520;2023-05-07T03:55:59;7.51;95.46
70421;SHT31;57848;51.938;15.520;2023-05-07T03:58:24;7.46;95.54
70421;SHT31;57848;51.938;15.520;2023-05-07T04:00:51;7.44;95.32
70421;SHT31;57848;51.938;15.520;2023-05-07T04:03:24;7.54;95.59
70421;SHT31;57848;51.938;15.520;2023-05-07T04:05:49;7.58;95.22
70421;SHT31;57848;51.938;15.520;2023-05-07T04:08:15;7.57;94.88
70421;SHT31;57848;51.938;15.520;2023-05-07T04:10:45;7.55;95.13
70421;SHT31;57848;51.938;15.520;2023-05-07T04:13:11;7.57;95.19
70421;SHT31;57848;51.938;15.520;2023-05-07T04:15:36;7.55;94.61
70421;SHT31;57848;51.938;15.520;2023-05-07T04:18:04;7.47;94.81
70421;SHT31;57848;51.938;15.520;2023-05-07T04:20:30;7.53;94.89
70421;SHT31;57848;51.938;15.520;2023-05-07T04:23:01;7.48;94.80
70421;SHT31;57848;51.938;15.520;2023-05-07T04:25:27;7.57;94.73
70421;SHT31;57848;51.938;15.520;2023-05-07T04:27:57;7.57;94.66
70421;SHT31;57848;51.938;15.520;2023-05-07T04:30:25;7.65;94.33
70421;SHT31;57848;51.938;15.520;2023-05-07T04:32:51;7.63;94.38
70421;SHT31;57848;51.938;15.520;2023-05-07T04:35:17;7.65;94.09
70421;SHT31;57848;51.938;15.520;2023-05-07T04:37:43;7.63;93.79
70421;SHT31;57848;51.938;15.520;2023-05-07T04:40:08;7.58;94.06
70421;SHT31;57848;51.938;15.520;2023-05-07T04:42:34;7.64;94.15
70421;SHT31;57848;51.938;15.520;2023-05-07T04:45:01;7.63;94.00
70421;SHT31;57848;51.938;15.520;2023-05-07T04:47:29;7.55;93.96
70421;SHT31;57848;51.938;15.520;2023-05-07T04:49:55;7.61;93.51
70421;SHT31;57848;51.938;15.520;2023-05-07T04:52:20;7.67;93.91
70421;SHT31;57848;51.938;15.520;2023-05-07T04:54:45;7.73;93.37
70421;SHT31;57848;51.938;15.520;2023-05-07T04:57:11;7.73;93.58
70421;SHT31;57848;51.938;15.520;2023-05-07T04:59:36;7.77;93.64
70421;SHT31;57848;51.938;15.520;2023-05-07T05:02:02;7.78;92.71
70421;SHT31;57848;51.938;15.520;2023-05-07T05:04:30;7.79;93.44
70421;SHT31;57848;51.938;15.520;2023-05-07T05:06:56;7.86;93.13
70421;SHT31;57848;51.938;15.520;2023-05-07T05:09:21;7.84;92.43
70421;SHT31;57848;51.938;15.520;2023-05-07T05:11:47;7.96;93.30
70421;SHT31;57848;51.938;15.520;2023-05-07T05:14:12;7.95;92.77
70421;SHT31;57848;51.938;15.520;2023-05-07T05:16:38;8.05;92.38
70421;SHT31;57848;51.938;15.520;2023-05-07T05:19:03;7.95;92.80
70421;SHT31;57848;51.938;15.520;2023-05-07T05:21:31;8.01;92.50
70421;SHT31;57848;51.938;15.520;2023-05-07T05:24:02;7.84;92.79
70421;SHT31;57848;51.938;15.520;2023-05-07T05:26:28;7.86;92.95
70421;SHT31;57848;51.938;15.520;2023-05-07T05:28:54;7.84;93.56
70421;SHT31;57848;51.938;15.520;2023-05-07T05:31:22;7.91;93.62
70421;SHT31;57848;51.938;15.520;2023-05-07T05:33:48;7.99;92.84
70421;SHT31;57848;51.938;15.520;2023-05-07T05:36:14;8.13;92.44
70421;SHT31;57848;51.938;15.520;2023-05-07T05:38:41;8.12;91.45
70421;SHT31;57848;51.938;15.520;2023-05-07T05:41:08;8.17;91.78
70421;SHT31;57848;51.938;15.520;2023-05-07T05:43:34;8.22;92.22
70421;SHT31;57848;51.938;15.520;2023-05-07T05:45:59;8.35;92.01
70421;SHT31;57848;51.938;15.520;2023-05-07T05:48:26;8.29;91.35
70421;SHT31;57848;51.938;15.520;2023-05-07T05:50:51;8.36;90.97
70421;SHT31;57848;51.938;15.520;2023-05-07T05:53:17;8.33;91.68
70421;SHT31;57848;51.938;15.520;2023-05-07T05:55:43;8.46;91.77
70421;SHT31;57848;51.938;15.520;2023-05-07T05:58:09;8.47;91.56
70421;SHT31;57848;51.938;15.520;2023-05-07T06:00:38;8.57;90.93
70421;SHT31;57848;51.938;15.520;2023-05-07T06:03:05;8.39;90.54
70421;SHT31;57848;51.938;15.520;2023-05-07T06:05:30;8.52;91.01
70421;SHT31;57848;51.938;15.520;2023-05-07T06:07:56;8.44;90.29
70421;SHT31;57848;51.938;15.520;2023-05-07T06:10:21;8.46;90.07
70421;SHT31;57848;51.938;15.520;2023-05-07T06:12:48;8.44;90.46
70421;SHT31;57848;51.938;15.520;2023-05-07T06:15:15;8.52;90.48
70421;SHT31;57848;51.938;15.520;2023-05-07T06:17:41;8.44;90.14
70421;SHT31;57848;51.938;15.520;2023-05-07T06:20:09;8.46;90.19
70421;SHT31;57848;51.938;15.520;2023-05-07T06:22:34;8.52;90.22
70421;SHT31;57848;51.938;15.520;2023-05-07T06:25:00;8.40;89.79
70421;SHT31;57848;51.938;15.520;2023-05-07T06:27:26;8.47;89.84
70421;SHT31;57848;51.938;15.520;2023-05-07T06:29:53;8.44;89.74
70421;SHT31;57848;51.938;15.520;2023-05-07T06:32:18;8.56;90.57
70421;SHT31;57848;51.938;15.520;2023-05-07T06:34:45;8.50;90.23
70421;SHT31;57848;51.938;15.520;2023-05-07T06:37:11;8.56;89.35
70421;SHT31;57848;51.938;15.520;2023-05-07T06:40:06;8.59;89.37
70421;SHT31;57848;51.938;15.520;2023-05-07T06:42:35;8.60;89.50
70421;SHT31;57848;51.938;15.520;2023-05-07T06:45:17;8.74;88.74
70421;SHT31;57848;51.938;15.520;2023-05-07T06:47:43;8.84;88.41
70421;SHT31;57848;51.938;15.520;2023-05-07T06:50:08;8.81;88.09
70421;SHT31;57848;51.938;15.520;2023-05-07T06:52:35;8.83;88.47
70421;SHT31;57848;51.938;15.520;2023-05-07T06:55:01;8.88;88.59
70421;SHT31;57848;51.938;15.520;2023-05-07T06:57:26;9.10;88.24
70421;SHT31;57848;51.938;15.520;2023-05-07T06:59:51;9.21;87.68
70421;SHT31;57848;51.938;15.520;2023-05-07T07:02:17;9.29;87.65
70421;SHT31;57848;51.938;15.520;2023-05-07T07:04:43;9.29;87.50
70421;SHT31;57848;51.938;15.520;2023-05-07T07:07:10;9.36;86.71
70421;SHT31;57848;51.938;15.520;2023-05-07T07:09:35;9.49;87.69
70421;SHT31;57848;51.938;15.520;2023-05-07T07:12:03;9.55;87.64
70421;SHT31;57848;51.938;15.520;2023-05-07T07:14:29;9.62;87.30
70421;SHT31;57848;51.938;15.520;2023-05-07T07:16:55;9.60;86.17
70421;SHT31;57848;51.938;15.520;2023-05-07T07:19:22;9.72;85.95
70421;SHT31;57848;51.938;15.520;2023-05-07T07:21:50;9.84;85.85
70421;SHT31;57848;51.938;15.520;2023-05-07T07:24:16;9.82;85.77
70421;SHT31;57848;51.938;15.520;2023-05-07T07:26:45;9.83;86.19
70421;SHT31;57848;51.938;15.520;2023-05-07T07:29:11;9.93;86.11
70421;SHT31;57848;51.938;15.520;2023-05-07T07:31:38;9.82;85.75
70421;SHT31;57848;51.938;15.520;2023-05-07T07:34:03;9.87;85.37
70421;SHT31;57848;51.938;15.520;2023-05-07T07:36:28;9.87;84.96
70421;SHT31;57848;51.938;15.520;2023-05-07T07:38:54;9.82;84.36
70421;SHT31;57848;51.938;15.520;2023-05-07T07:41:19;9.97;84.04
70421;SHT31;57848;51.938;15.520;2023-05-07T07:43:46;10.01;84.77
70421;SHT31;57848;51.938;15.520;2023-05-07T07:46:15;10.10;84.48
70421;SHT31;57848;51.938;15.520;2023-05-07T07:48:42;10.22;84.18
70421;SHT31;57848;51.938;15.520;2023-05-07T07:51:07;10.28;83.60
70421;SHT31;57848;51.938;15.520;2023-05-07T07:53:33;10.24;83.84
70421;SHT31;57848;51.938;15.520;2023-05-07T07:55:59;10.22;82.50
70421;SHT31;57848;51.938;15.520;2023-05-07T07:58:26;10.01;83.27
70421;SHT31;57848;51.938;15.520;2023-05-07T08:00:52;10.04;83.11
70421;SHT31;57848;51.938;15.520;2023-05-07T08:03:20;10.00;82.90
70421;SHT31;57848;51.938;15.520;2023-05-07T08:05:50;9.94;82.69
70421;SHT31;57848;51.938;15.520;2023-05-07T08:08:16;9.95;83.55
70421;SHT31;57848;51.938;15.520;2023-05-07T08:10:42;10.01;83.17
70421;SHT31;57848;51.938;15.520;2023-05-07T08:13:17;9.89;82.41
70421;SHT31;57848;51.938;15.520;2023-05-07T08:15:43;9.83;82.43
70421;SHT31;57848;51.938;15.520;2023-05-07T08:18:10;9.73;81.86
70421;SHT31;57848;51.938;15.520;2023-05-07T08:20:35;9.62;82.56
70421;SHT31;57848;51.938;15.520;2023-05-07T08:23:05;9.60;82.35
70421;SHT31;57848;51.938;15.520;2023-05-07T08:25:33;9.67;83.31
70421;SHT31;57848;51.938;15.520;2023-05-07T08:27:59;9.66;82.59
70421;SHT31;57848;51.938;15.520;2023-05-07T08:30:24;9.69;82.94
70421;SHT31;57848;51.938;15.520;2023-05-07T08:32:50;9.52;81.99
70421;SHT31;57848;51.938;15.520;2023-05-07T08:35:16;9.59;82.37
70421;SHT31;57848;51.938;15.520;2023-05-07T08:37:41;9.73;83.26
70421;SHT31;57848;51.938;15.520;2023-05-07T08:40:07;9.56;81.96
70421;SHT31;57848;51.938;15.520;2023-05-07T08:42:36;9.50;82.06
70421;SHT31;57848;51.938;15.520;2023-05-07T08:45:04;9.77;81.28
70421;SHT31;57848;51.938;15.520;2023-05-07T08:47:44;10.17;81.08
70421;SHT31;57848;51.938;15.520;2023-05-07T08:50:11;10.30;78.74
70421;SHT31;57848;51.938;15.520;2023-05-07T08:52:37;10.31;78.24
70421;SHT31;57848;51.938;15.520;2023-05-07T08:55:03;10.35;77.76
70421;SHT31;57848;51.938;15.520;2023-05-07T08:57:29;10.31;78.40
70421;SHT31;57848;51.938;15.520;2023-05-07T08:59:55;10.44;78.90
70421;SHT31;57848;51.938;15.520;2023-05-07T09:02:21;10.63;78.32
70421;SHT31;57848;51.938;15.520;2023-05-07T09:04:46;10.59;78.12
70421;SHT31;57848;51.938;15.520;2023-05-07T09:07:12;10.71;79.01
70421;SHT31;57848;51.938;15.520;2023-05-07T09:09:43;10.83;77.29
70421;SHT31;57848;51.938;15.520;2023-05-07T09:12:09;10.91;77.13
70421;SHT31;57848;51.938;15.520;2023-05-07T09:14:36;11.20;77.84
70421;SHT31;57848;51.938;15.520;2023-05-07T09:17:02;11.23;75.74
70421;SHT31;57848;51.938;15.520;2023-05-07T09:19:28;11.23;75.60
70421;SHT31;57848;51.938;15.520;2023-05-07T09:22:01;11.19;75.80
70421;SHT31;57848;51.938;15.520;2023-05-07T09:24:31;11.20;75.38
70421;SHT31;57848;51.938;15.520;2023-05-07T09:27:01;11.43;75.80
70421;SHT31;57848;51.938;15.520;2023-05-07T09:29:28;11.50;73.89
70421;SHT31;57848;51.938;15.520;2023-05-07T09:32:03;11.65;74.18
70421;SHT31;57848;51.938;15.520;2023-05-07T09:34:29;11.58;74.67
70421;SHT31;57848;51.938;15.520;2023-05-07T09:36:55;11.70;74.28
70421;SHT31;57848;51.938;15.520;2023-05-07T09:39:22;11.61;74.97
70421;SHT31;57848;51.938;15.520;2023-05-07T09:41:48;11.89;74.46
70421;SHT31;57848;51.938;15.520;2023-05-07T09:44:21;11.61;73.30
70421;SHT31;57848;51.938;15.520;2023-05-07T09:46:54;11.74;73.60
70421;SHT31;57848;51.938;15.520;2023-05-07T09:49:29;11.88;74.06
70421;SHT31;57848;51.938;15.520;2023-05-07T09:52:02;11.84;74.50
70421;SHT31;57848;51.938;15.520;2023-05-07T09:54:30;11.70;73.74
70421;SHT31;57848;51.938;15.520;2023-05-07T09:56:58;11.81;73.64
70421;SHT31;57848;51.938;15.520;2023-05-07T09:59:27;11.82;73.98
70421;SHT31;57848;51.938;15.520;2023-05-07T10:01:56;11.88;74.05
70421;SHT31;57848;51.938;15.520;2023-05-07T10:04:22;11.71;73.91
70421;SHT31;57848;51.938;15.520;2023-05-07T10:06:50;11.99;74.48
70421;SHT31;57848;51.938;15.520;2023-05-07T10:09:16;12.37;74.74
70421;SHT31;57848;51.938;15.520;2023-05-07T10:11:42;12.49;72.25
70421;SHT31;57848;51.938;15.520;2023-05-07T10:14:09;12.67;71.04
70421;SHT31;57848;51.938;15.520;2023-05-07T10:16:36;12.71;70.21
70421;SHT31;57848;51.938;15.520;2023-05-07T10:19:05;12.81;69.18
70421;SHT31;57848;51.938;15.520;2023-05-07T10:21:36;12.92;69.68
70421;SHT31;57848;51.938;15.520;2023-05-07T10:24:09;13.00;67.56
70421;SHT31;57848;51.938;15.520;2023-05-07T10:26:43;12.71;68.58
70421;SHT31;57848;51.938;15.520;2023-05-07T10:34:53;12.50;67.69
70421;SHT31;57848;51.938;15.520;2023-05-07T10:37:20;13.00;68.29
70421;SHT31;57848;51.938;15.520;2023-05-07T10:39:46;13.34;68.36
70421;SHT31;57848;51.938;15.520;2023-05-07T10:42:14;12.98;67.10
70421;SHT31;57848;51.938;15.520;2023-05-07T10:44:45;13.07;66.98
70421;SHT31;57848;51.938;15.520;2023-05-07T10:47:16;12.85;66.41
70421;SHT31;57848;51.938;15.520;2023-05-07T10:52:20;13.04;66.31
70421;SHT31;57848;51.938;15.520;2023-05-07T10:57:42;13.01;66.02
70421;SHT31;57848;51.938;15.520;2023-05-07T11:05:31;12.47;69.01
70421;SHT31;57848;51.938;15.520;2023-05-07T11:08:10;12.57;69.03
70421;SHT31;57848;51.938;15.520;2023-05-07T11:10:53;12.42;66.79
70421;SHT31;57848;51.938;15.520;2023-05-07T11:13:44;12.52;67.24
70421;SHT31;57848;51.938;15.520;2023-05-07T11:16:24;12.37;66.53
70421;SHT31;57848;51.938;15.520;2023-05-07T11:19:06;12.63;67.75
70421;SHT31;57848;51.938;15.520;2023-05-07T11:21:41;12.70;66.99
70421;SHT31;57848;51.938;15.520;2023-05-07T11:24:40;12.73;66.78
70421;SHT31;57848;51.938;15.520;2023-05-07T11:27:08;12.67;67.28
70421;SHT31;57848;51.938;15.520;2023-05-07T11:29:33;12.77;67.60
70421;SHT31;57848;51.938;15.520;2023-05-07T11:32:05;12.88;66.66
70421;SHT31;57848;51.938;15.520;2023-05-07T11:34:38;13.10;67.16
70421;SHT31;57848;51.938;15.520;2023-05-07T11:37:04;13.59;65.24
70421;SHT31;57848;51.938;15.520;2023-05-07T11:40:03;13.51;64.02
70421;SHT31;57848;51.938;15.520;2023-05-07T11:42:33;13.52;63.79
70421;SHT31;57848;51.938;15.520;2023-05-07T11:44:59;13.46;63.87
70421;SHT31;57848;51.938;15.520;2023-05-07T11:47:24;13.62;63.70
70421;SHT31;57848;51.938;15.520;2023-05-07T11:49:54;13.26;65.03
70421;SHT31;57848;51.938;15.520;2023-05-07T11:52:21;13.28;65.77
70421;SHT31;57848;51.938;15.520;2023-05-07T11:54:51;13.35;66.01
70421;SHT31;57848;51.938;15.520;2023-05-07T11:57:16;13.11;65.73
70421;SHT31;57848;51.938;15.520;2023-05-07T11:59:42;13.14;65.98
70421;SHT31;57848;51.938;15.520;2023-05-07T12:02:09;12.95;65.96
70421;SHT31;57848;51.938;15.520;2023-05-07T12:04:35;12.84;66.55
70421;SHT31;57848;51.938;15.520;2023-05-07T12:07:00;12.90;65.66
70421;SHT31;57848;51.938;15.520;2023-05-07T12:09:26;13.12;66.12
70421;SHT31;57848;51.938;15.520;2023-05-07T12:11:52;13.42;65.83
70421;SHT31;57848;51.938;15.520;2023-05-07T12:14:18;13.31;64.59
70421;SHT31;57848;51.938;15.520;2023-05-07T12:16:43;13.32;65.71
70421;SHT31;57848;51.938;15.520;2023-05-07T12:19:10;13.08;65.24
70421;SHT31;57848;51.938;15.520;2023-05-07T12:21:38;13.11;64.62
70421;SHT31;57848;51.938;15.520;2023-05-07T12:24:04;13.26;65.50
70421;SHT31;57848;51.938;15.520;2023-05-07T12:26:30;13.32;64.86
70421;SHT31;57848;51.938;15.520;2023-05-07T12:28:57;13.26;64.60
70421;SHT31;57848;51.938;15.520;2023-05-07T12:31:22;13.42;65.07
70421;SHT31;57848;51.938;15.520;2023-05-07T12:33:48;13.70;64.44
70421;SHT31;57848;51.938;15.520;2023-05-07T12:36:13;13.76;63.89
70421;SHT31;57848;51.938;15.520;2023-05-07T12:38:39;13.81;62.48
70421;SHT31;57848;51.938;15.520;2023-05-07T12:41:07;14.27;62.42
70421;SHT31;57848;51.938;15.520;2023-05-07T12:43:32;14.40;60.87
70421;SHT31;57848;51.938;15.520;2023-05-07T12:46:04;14.03;61.83
70421;SHT31;57848;51.938;15.520;2023-05-07T12:48:30;14.18;62.22
70421;SHT31;57848;51.938;15.520;2023-05-07T12:50:57;14.21;61.63
70421;SHT31;57848;51.938;15.520;2023-05-07T12:53:24;13.90;61.97
70421;SHT31;57848;51.938;15.520;2023-05-07T12:55:53;13.79;62.43
70421;SHT31;57848;51.938;15.520;2023-05-07T12:58:20;14.49;60.46
70421;SHT31;57848;51.938;15.520;2023-05-07T13:00:50;14.46;60.48
70421;SHT31;57848;51.938;15.520;2023-05-07T13:03:24;14.28;61.00
70421;SHT31;57848;51.938;15.520;2023-05-07T13:05:50;14.34;62.37
70421;SHT31;57848;51.938;15.520;2023-05-07T13:08:27;15.50;60.00
70421;SHT31;57848;51.938;15.520;2023-05-07T13:10:53;16.46;55.30
70421;SHT31;57848;51.938;15.520;2023-05-07T13:13:19;17.27;53.28
70421;SHT31;57848;51.938;15.520;2023-05-07T13:15:46;17.21;53.50
70421;SHT31;57848;51.938;15.520;2023-05-07T13:18:11;17.03;53.16
70421;SHT31;57848;51.938;15.520;2023-05-07T13:20:36;17.34;53.30
70421;SHT31;57848;51.938;15.520;2023-05-07T13:23:02;17.49;52.96
70421;SHT31;57848;51.938;15.520;2023-05-07T13:25:29;17.32;51.62
70421;SHT31;57848;51.938;15.520;2023-05-07T13:27:56;16.66;53.24
70421;SHT31;57848;51.938;15.520;2023-05-07T13:30:22;16.46;54.06
70421;SHT31;57848;51.938;15.520;2023-05-07T13:32:47;16.01;55.81
70421;SHT31;57848;51.938;15.520;2023-05-07T13:35:13;15.81;55.44
70421;SHT31;57848;51.938;15.520;2023-05-07T13:37:38;15.65;55.96
70421;SHT31;57848;51.938;15.520;2023-05-07T13:40:04;15.51;57.16
70421;SHT31;57848;51.938;15.520;2023-05-07T13:42:29;15.34;57.84
70421;SHT31;57848;51.938;15.520;2023-05-07T13:44:56;14.96;57.95
70421;SHT31;57848;51.938;15.520;2023-05-07T13:47:22;14.69;60.08
70421;SHT31;57848;51.938;15.520;2023-05-07T13:49:48;14.57;59.78
70421;SHT31;57848;51.938;15.520;2023-05-07T13:52:16;14.35;60.25
70421;SHT31;57848;51.938;15.520;2023-05-07T13:54:42;14.40;59.71
70421;SHT31;57848;51.938;15.520;2023-05-07T13:57:07;14.57;60.60
70421;SHT31;57848;51.938;15.520;2023-05-07T13:59:33;14.48;58.27
70421;SHT31;57848;51.938;15.520;2023-05-07T14:01:58;14.54;59.05
70421;SHT31;57848;51.938;15.520;2023-05-07T14:04:24;14.67;59.50
70421;SHT31;57848;51.938;15.520;2023-05-07T14:06:49;14.54;58.97
70421;SHT31;57848;51.938;15.520;2023-05-07T14:09:14;14.17;58.57
70421;SHT31;57848;51.938;15.520;2023-05-07T14:11:41;14.34;58.92
70421;SHT31;57848;51.938;15.520;2023-05-07T14:14:06;14.64;59.53
70421;SHT31;57848;51.938;15.520;2023-05-07T14:16:31;14.86;58.90
70421;SHT31;57848;51.938;15.520;2023-05-07T14:18:57;15.04;59.05
70421;SHT31;57848;51.938;15.520;2023-05-07T14:21:22;15.23;57.88
70421;SHT31;57848;51.938;15.520;2023-05-07T14:23:47;14.80;58.35
70421;SHT31;57848;51.938;15.520;2023-05-07T14:26:13;14.67;58.79
70421;SHT31;57848;51.938;15.520;2023-05-07T14:28:39;14.55;59.89
70421;SHT31;57848;51.938;15.520;2023-05-07T14:31:05;14.55;60.47
70421;SHT31;57848;51.938;15.520;2023-05-07T14:33:31;14.42;59.67
70421;SHT31;57848;51.938;15.520;2023-05-07T14:35:56;14.58;60.41
70421;SHT31;57848;51.938;15.520;2023-05-07T14:38:22;14.30;60.40
70421;SHT31;57848;51.938;15.520;2023-05-07T14:40:47;14.37;60.18
70421;SHT31;57848;51.938;15.520;2023-05-07T14:43:12;14.37;61.26
70421;SHT31;57848;51.938;15.520;2023-05-07T14:45:38;14.17;60.89
70421;SHT31;57848;51.938;15.520;2023-05-07T14:48:03;14.13;61.34
70421;SHT31;57848;51.938;15.520;2023-05-07T14:50:29;14.04;61.75
70421;SHT31;57848;51.938;15.520;2023-05-07T14:52:54;14.11;61.34
70421;SHT31;57848;51.938;15.520;2023-05-07T14:55:20;13.93;61.37
70421;SHT31;57848;51.938;15.520;2023-05-07T14:57:45;13.79;61.58
70421;SHT31;57848;51.938;15.520;2023-05-07T15:00:11;13.67;62.36
70421;SHT31;57848;51.938;15.520;2023-05-07T15:02:37;13.53;63.63
70421;SHT31;57848;51.938;15.520;2023-05-07T15:05:03;13.36;63.90
70421;SHT31;57848;51.938;15.520;2023-05-07T15:07:28;13.52;64.55
70421;SHT31;57848;51.938;15.520;2023-05-07T15:09:54;13.42;64.61
70421;SHT31;57848;51.938;15.520;2023-05-07T15:12:19;13.35;64.20
70421;SHT31;57848;51.938;15.520;2023-05-07T15:14:44;13.25;64.45
70421;SHT31;57848;51.938;15.520;2023-05-07T15:17:11;13.31;64.36
70421;SHT31;57848;51.938;15.520;2023-05-07T15:19:36;13.21;63.85
70421;SHT31;57848;51.938;15.520;2023-05-07T15:22:02;13.23;64.16
70421;SHT31;57848;51.938;15.520;2023-05-07T15:24:31;13.22;63.00
70421;SHT31;57848;51.938;15.520;2023-05-07T15:26:56;13.22;63.75
70421;SHT31;57848;51.938;15.520;2023-05-07T15:29:23;13.16;64.23
70421;SHT31;57848;51.938;15.520;2023-05-07T15:31:49;13.01;64.70
70421;SHT31;57848;51.938;15.520;2023-05-07T15:34:14;13.05;64.82
70421;SHT31;57848;51.938;15.520;2023-05-07T15:36:42;12.94;65.18
70421;SHT31;57848;51.938;15.520;2023-05-07T15:39:07;12.79;64.54
70421;SHT31;57848;51.938;15.520;2023-05-07T15:41:33;12.68;64.72